createdAt,value
2019-05-16T00:00:55.379Z,73.81
2019-05-16T00:01:55.363Z,74.02
2019-05-16T00:02:55.366Z,74.02
2019-05-16T00:03:55.336Z,74.12
2019-05-16T00:04:55.327Z,74.73
2019-05-16T00:05:55.342Z,75.66
2019-05-16T00:06:55.305Z,76.72
2019-05-16T00:07:55.319Z,76.37
2019-05-16T00:08:55.280Z,77.84
2019-05-16T00:09:55.270Z,77.64
2019-05-16T00:10:55.263Z,77.95
2019-05-16T00:11:55.253Z,79.28
2019-05-16T00:12:55.252Z,81.02
2019-05-16T00:13:55.231Z,79.80
2019-05-16T00:14:55.220Z,80.88
2019-05-16T00:15:55.202Z,79.80
2019-05-16T00:16:55.213Z,81.95
2019-05-16T00:17:55.192Z,81.64
2019-05-16T00:18:55.177Z,82.77
2019-05-16T00:19:55.165Z,81.85
2019-05-16T00:20:55.151Z,80.21
2019-05-16T00:21:55.141Z,80.92
2019-05-16T00:22:55.138Z,82.26
2019-05-16T00:23:55.112Z,82.15
2019-05-16T00:24:55.112Z,83.53
2019-05-16T00:25:55.095Z,81.88
2019-05-16T00:26:55.084Z,80.96
2019-05-16T00:27:55.094Z,82.29
2019-05-16T00:28:55.057Z,81.37
2019-05-16T00:29:55.045Z,82.50
2019-05-16T00:30:55.033Z,82.09
2019-05-16T00:31:55.027Z,82.09
2019-05-16T00:32:55.028Z,81.99
2019-05-16T00:33:55.011Z,82.13
2019-05-16T00:34:54.996Z,83.63
2019-05-16T00:36:02.473Z,83.73
2019-05-16T00:36:58.048Z,83.83
2019-05-16T00:37:55.007Z,83.63
2019-05-16T00:38:54.949Z,84.66
2019-05-16T00:39:54.937Z,84.66
2019-05-16T00:40:54.919Z,83.01
2019-05-16T00:41:54.909Z,81.88
2019-05-16T00:42:54.906Z,82.29
2019-05-16T00:43:54.890Z,82.23
2019-05-16T00:44:54.874Z,82.84
2019-05-16T00:45:54.871Z,84.80
2019-05-16T00:46:54.857Z,85.72
2019-05-16T00:47:54.856Z,85.41
2019-05-16T00:48:54.831Z,85.99
2019-05-16T00:49:54.829Z,85.82
2019-05-16T00:50:54.817Z,86.40
2019-05-16T00:51:54.802Z,86.40
2019-05-16T00:52:54.797Z,84.76
2019-05-16T00:53:54.780Z,84.80
2019-05-16T00:54:54.768Z,85.89
2019-05-16T00:55:54.752Z,84.18
2019-05-16T00:56:54.764Z,85.00
2019-05-16T00:57:54.729Z,85.72
2019-05-16T00:58:54.737Z,85.52
2019-05-16T00:59:54.712Z,84.39
2019-05-16T01:00:54.694Z,84.90
2019-05-16T01:01:54.695Z,85.62
2019-05-16T01:02:54.680Z,85.52
2019-05-16T01:03:54.676Z,84.80
2019-05-16T01:04:54.697Z,85.52
2019-05-16T01:05:54.646Z,86.03
2019-05-16T01:06:54.635Z,86.65
2019-05-16T01:07:54.619Z,85.82
2019-05-16T01:08:54.615Z,84.69
2019-05-16T01:09:54.601Z,84.80
2019-05-16T01:10:54.586Z,86.03
2019-05-16T01:11:54.574Z,86.24
2019-05-16T01:12:54.559Z,86.85
2019-05-16T01:13:54.581Z,86.65
2019-05-16T01:14:54.545Z,87.26
2019-05-16T01:15:54.525Z,86.33
2019-05-16T01:16:54.519Z,84.80
2019-05-16T01:17:54.507Z,86.54
2019-05-16T01:18:54.512Z,86.33
2019-05-16T01:19:54.485Z,86.24
2019-05-16T01:20:54.475Z,86.17
2019-05-16T01:21:54.465Z,86.85
2019-05-16T01:22:54.453Z,86.44
2019-05-16T01:23:54.441Z,86.65
2019-05-16T01:24:54.429Z,87.05
2019-05-16T01:25:54.420Z,88.18
2019-05-16T01:26:54.411Z,87.05
2019-05-16T01:27:54.395Z,86.65
2019-05-16T01:28:54.393Z,86.44
2019-05-16T01:29:54.376Z,86.03
2019-05-16T01:30:54.363Z,86.13
2019-05-16T01:31:54.347Z,86.44
2019-05-16T01:32:54.335Z,86.03
2019-05-16T01:33:54.336Z,86.68
2019-05-16T01:34:54.310Z,87.26
2019-05-16T01:35:54.302Z,87.37
2019-05-16T01:36:54.290Z,87.46
2019-05-16T01:37:54.289Z,87.51
2019-05-16T01:38:54.293Z,87.40
2019-05-16T01:39:54.254Z,87.20
2019-05-16T01:40:54.248Z,87.92
2019-05-16T01:41:54.238Z,87.77
2019-05-16T01:42:54.225Z,88.12
2019-05-16T01:43:54.254Z,87.71
2019-05-16T01:44:54.205Z,87.61
2019-05-16T01:45:54.187Z,88.02
2019-05-16T01:46:54.184Z,87.82
2019-05-16T01:47:54.165Z,88.74
2019-05-16T01:48:54.165Z,88.53
2019-05-16T01:49:54.146Z,87.77
2019-05-16T01:50:54.132Z,88.18
2019-05-16T01:51:54.134Z,88.80
2019-05-16T01:52:54.125Z,87.92
2019-05-16T01:53:54.137Z,87.61
2019-05-16T01:54:54.096Z,87.46
2019-05-16T01:55:54.075Z,87.71
2019-05-16T01:56:54.067Z,88.29
2019-05-16T01:57:54.053Z,88.90
2019-05-16T01:58:54.055Z,88.70
2019-05-16T01:59:54.038Z,86.85
2019-05-16T02:01:10.491Z,86.33
2019-05-16T02:01:55.005Z,87.16
2019-05-16T02:02:53.999Z,87.05
2019-05-16T02:03:54.024Z,86.85
2019-05-16T02:04:53.977Z,87.05
2019-05-16T02:05:53.966Z,87.26
2019-05-16T02:06:55.106Z,86.65
2019-05-16T02:07:53.943Z,86.75
2019-05-16T02:08:53.932Z,87.05
2019-05-16T02:09:53.930Z,86.75
2019-05-16T02:10:53.910Z,87.05
2019-05-16T02:11:53.898Z,86.54
2019-05-16T02:12:53.886Z,86.13
2019-05-16T02:13:53.881Z,86.54
2019-05-16T02:14:53.887Z,86.85
2019-05-16T02:15:53.865Z,87.26
2019-05-16T02:16:53.847Z,87.57
2019-05-16T02:17:53.838Z,87.46
2019-05-16T02:18:53.821Z,87.46
2019-05-16T02:19:53.818Z,87.67
2019-05-16T02:20:53.795Z,87.26
2019-05-16T02:21:53.792Z,87.37
2019-05-16T02:22:53.774Z,87.57
2019-05-16T02:23:53.764Z,87.05
2019-05-16T02:24:53.764Z,86.54
2019-05-16T02:25:53.758Z,86.95
2019-05-16T02:26:53.735Z,86.95
2019-05-16T02:27:53.724Z,86.65
2019-05-16T02:28:53.721Z,86.95
2019-05-16T02:29:53.700Z,87.05
2019-05-16T02:30:53.684Z,87.37
2019-05-16T02:31:53.673Z,87.67
2019-05-16T02:32:53.660Z,87.46
2019-05-16T02:33:53.646Z,87.37
2019-05-16T02:34:53.655Z,86.50
2019-05-16T02:35:55.588Z,87.05
2019-05-16T02:37:14.710Z,87.02
2019-05-16T02:37:55.275Z,86.40
2019-05-16T02:38:55.533Z,87.22
2019-05-16T02:39:54.475Z,87.37
2019-05-16T02:40:55.231Z,86.54
2019-05-16T02:41:53.559Z,86.24
2019-05-16T02:42:56.170Z,86.40
2019-05-16T02:43:53.543Z,86.81
2019-05-16T02:44:53.540Z,87.32
2019-05-16T02:45:53.511Z,87.84
2019-05-16T02:46:53.498Z,87.77
2019-05-16T02:47:53.492Z,87.02
2019-05-16T02:48:53.482Z,87.37
2019-05-16T02:49:53.480Z,87.88
2019-05-16T02:50:53.470Z,88.24
2019-05-16T02:51:53.461Z,88.18
2019-05-16T02:52:53.430Z,88.49
2019-05-16T02:53:53.424Z,89.17
2019-05-16T02:54:53.437Z,88.90
2019-05-16T02:55:53.400Z,89.01
2019-05-16T02:56:53.386Z,88.86
2019-05-16T02:57:53.391Z,89.89
2019-05-16T02:58:53.362Z,89.93
2019-05-16T02:59:53.373Z,89.52
2019-05-16T03:00:53.347Z,89.89
2019-05-16T03:01:53.336Z,89.83
2019-05-16T03:02:53.316Z,90.14
2019-05-16T03:03:53.307Z,90.40
2019-05-16T03:04:53.321Z,90.95
2019-05-16T03:05:53.308Z,89.89
2019-05-16T03:06:53.284Z,90.09
2019-05-16T03:07:53.262Z,90.95
2019-05-16T03:08:53.254Z,90.75
2019-05-16T03:09:53.251Z,90.81
2019-05-16T03:10:53.235Z,90.44
2019-05-16T03:11:53.216Z,91.47
2019-05-16T03:12:53.206Z,91.53
2019-05-16T03:13:53.197Z,90.55
2019-05-16T03:14:54.659Z,91.67
2019-05-16T03:15:53.192Z,91.67
2019-05-16T03:16:53.174Z,91.12
2019-05-16T03:17:53.161Z,91.57
2019-05-16T03:18:53.136Z,91.47
2019-05-16T03:19:53.140Z,91.27
2019-05-16T03:20:53.130Z,91.67
2019-05-16T03:21:53.109Z,91.67
2019-05-16T03:22:53.101Z,91.88
2019-05-16T03:23:53.086Z,91.67
2019-05-16T03:24:53.073Z,91.47
2019-05-16T03:25:53.080Z,89.93
2019-05-16T03:26:53.055Z,90.55
2019-05-16T03:27:53.038Z,90.85
2019-05-16T03:28:53.032Z,90.34
2019-05-16T03:29:53.011Z,91.47
2019-05-16T03:30:54.827Z,91.47
2019-05-16T03:31:54.747Z,90.95
2019-05-16T03:32:54.864Z,91.22
2019-05-16T03:33:59.606Z,90.65
2019-05-16T03:34:55.002Z,91.57
2019-05-16T03:35:55.338Z,90.81
2019-05-16T03:36:54.756Z,90.61
2019-05-16T03:37:59.642Z,91.57
2019-05-16T03:38:53.908Z,91.67
2019-05-16T03:39:52.901Z,91.53
2019-05-16T03:40:52.905Z,91.88
2019-05-16T03:41:52.885Z,91.74
2019-05-16T03:42:52.869Z,91.42
2019-05-16T03:43:52.854Z,91.33
2019-05-16T03:44:52.849Z,91.67
2019-05-16T03:45:52.848Z,92.40
2019-05-16T03:46:52.842Z,91.94
2019-05-16T03:47:52.839Z,92.04
2019-05-16T03:48:52.800Z,92.25
2019-05-16T03:49:52.794Z,92.86
2019-05-16T03:50:52.792Z,92.97
2019-05-16T03:51:52.774Z,92.25
2019-05-16T03:52:52.752Z,92.66
2019-05-16T03:53:52.743Z,92.76
2019-05-16T03:54:52.735Z,92.35
2019-05-16T03:55:52.731Z,91.74
2019-05-16T03:56:52.710Z,91.74
2019-05-16T03:57:52.703Z,91.84
2019-05-16T03:58:52.701Z,91.59
2019-05-16T03:59:52.673Z,91.94
2019-05-16T04:00:54.457Z,91.33
2019-05-16T04:01:52.650Z,91.84
2019-05-16T04:02:52.641Z,91.94
2019-05-16T04:03:52.634Z,91.84
2019-05-16T04:04:52.634Z,92.04
2019-05-16T04:05:53.119Z,91.94
2019-05-16T04:06:52.601Z,92.00
2019-05-16T04:08:09.992Z,92.21
2019-05-16T04:08:53.594Z,91.49
2019-05-16T04:09:52.577Z,91.53
2019-05-16T04:10:52.820Z,90.91
2019-05-16T04:11:52.551Z,91.59
2019-05-16T04:12:52.530Z,91.59
2019-05-16T04:13:52.515Z,91.69
2019-05-16T04:14:52.509Z,91.59
2019-05-16T04:15:53.143Z,91.49
2019-05-16T04:16:52.496Z,91.38
2019-05-16T04:17:52.470Z,91.18
2019-05-16T04:18:52.464Z,91.49
2019-05-16T04:19:52.465Z,91.18
2019-05-16T04:20:53.008Z,91.49
2019-05-16T04:21:52.451Z,91.80
2019-05-16T04:22:52.420Z,91.90
2019-05-16T04:23:52.404Z,92.21
2019-05-16T04:24:52.406Z,92.82
2019-05-16T04:25:53.061Z,92.10
2019-05-16T04:26:52.383Z,91.59
2019-05-16T04:27:52.360Z,91.80
2019-05-16T04:28:52.354Z,91.80
2019-05-16T04:29:52.343Z,92.31
2019-05-16T04:30:52.337Z,92.61
2019-05-16T04:31:52.334Z,93.02
2019-05-16T04:32:52.316Z,92.72
2019-05-16T04:33:52.297Z,92.10
2019-05-16T04:34:52.282Z,91.08
2019-05-16T04:35:53.222Z,91.28
2019-05-16T04:36:52.268Z,91.18
2019-05-16T04:37:52.254Z,91.28
2019-05-16T04:38:52.234Z,91.49
2019-05-16T04:39:52.227Z,91.24
2019-05-16T04:40:52.267Z,91.08
2019-05-16T04:41:52.228Z,91.49
2019-05-16T04:42:52.192Z,90.67
2019-05-16T04:43:52.182Z,91.08
2019-05-16T04:44:52.180Z,91.69
2019-05-16T04:45:52.889Z,91.80
2019-05-16T04:46:52.151Z,91.49
2019-05-16T04:47:52.130Z,91.90
2019-05-16T04:48:52.128Z,91.28
2019-05-16T04:49:52.195Z,90.87
2019-05-16T04:50:52.619Z,91.08
2019-05-16T04:51:52.130Z,91.49
2019-05-16T04:52:52.092Z,91.18
2019-05-16T04:53:52.080Z,91.55
2019-05-16T04:54:52.060Z,91.59
2019-05-16T04:55:52.329Z,91.44
2019-05-16T04:56:52.066Z,91.08
2019-05-16T04:57:52.016Z,91.44
2019-05-16T04:58:52.016Z,90.93
2019-05-16T04:59:51.999Z,90.87
2019-05-16T05:00:52.443Z,90.26
2019-05-16T05:01:51.986Z,90.97
2019-05-16T05:02:52.127Z,90.26
2019-05-16T05:04:08.745Z,90.87
2019-05-16T05:04:52.943Z,90.67
2019-05-16T05:05:52.201Z,90.67
2019-05-16T05:06:55.559Z,90.36
2019-05-16T05:07:51.911Z,90.77
2019-05-16T05:08:58.342Z,91.14
2019-05-16T05:09:52.885Z,91.38
2019-05-16T05:10:52.192Z,91.24
2019-05-16T05:11:52.248Z,91.35
2019-05-16T05:12:51.861Z,91.75
2019-05-16T05:13:51.846Z,91.44
2019-05-16T05:14:51.825Z,91.24
2019-05-16T05:15:51.815Z,91.14
2019-05-16T05:16:51.807Z,91.44
2019-05-16T05:17:51.800Z,90.83
2019-05-16T05:18:51.833Z,90.62
2019-05-16T05:19:51.781Z,91.35
2019-05-16T05:20:52.765Z,91.35
2019-05-16T05:21:51.747Z,90.73
2019-05-16T05:22:51.743Z,90.32
2019-05-16T05:23:51.725Z,90.62
2019-05-16T05:24:51.719Z,90.73
2019-05-16T05:25:51.892Z,90.62
2019-05-16T05:26:51.692Z,91.20
2019-05-16T05:27:51.692Z,91.24
2019-05-16T05:28:51.672Z,90.58
2019-05-16T05:29:51.661Z,90.48
2019-05-16T05:30:51.652Z,91.03
2019-05-16T05:31:54.914Z,90.58
2019-05-16T05:32:51.633Z,90.52
2019-05-16T05:33:51.610Z,90.73
2019-05-16T05:34:51.608Z,90.89
2019-05-16T05:35:51.607Z,91.55
2019-05-16T05:36:51.582Z,91.61
2019-05-16T05:37:51.598Z,91.30
2019-05-16T05:39:06.450Z,90.37
2019-05-16T05:39:52.550Z,91.30
2019-05-16T05:40:51.859Z,91.44
2019-05-16T05:41:51.523Z,91.03
2019-05-16T05:42:51.526Z,91.24
2019-05-16T05:43:54.374Z,91.65
2019-05-16T05:44:51.493Z,91.50
2019-05-16T05:45:51.768Z,91.40
2019-05-16T05:46:51.472Z,91.30
2019-05-16T05:47:51.475Z,91.40
2019-05-16T05:48:51.449Z,91.50
2019-05-16T05:49:51.440Z,91.40
2019-05-16T05:50:51.424Z,91.20
2019-05-16T05:51:51.414Z,91.30
2019-05-16T05:52:51.423Z,90.69
2019-05-16T05:53:51.391Z,91.40
2019-05-16T05:54:51.398Z,90.69
2019-05-16T05:55:51.885Z,91.30
2019-05-16T05:56:51.369Z,91.20
2019-05-16T05:57:51.366Z,91.30
2019-05-16T05:58:51.411Z,90.99
2019-05-16T05:59:51.344Z,90.99
2019-05-16T06:00:52.350Z,91.40
2019-05-16T06:01:51.916Z,91.50
2019-05-16T06:02:51.314Z,90.37
2019-05-16T06:03:51.289Z,90.69
2019-05-16T06:04:51.275Z,91.20
2019-05-16T06:05:51.267Z,90.48
2019-05-16T06:06:51.251Z,90.58
2019-05-16T06:07:51.256Z,91.46
2019-05-16T06:08:51.235Z,91.26
2019-05-16T06:09:56.216Z,91.30
2019-05-16T06:10:52.219Z,90.64
2019-05-16T06:11:51.208Z,90.69
2019-05-16T06:12:51.190Z,90.37
2019-05-16T06:13:51.173Z,90.48
2019-05-16T06:14:51.164Z,91.05
2019-05-16T06:15:51.460Z,90.79
2019-05-16T06:16:51.157Z,90.79
2019-05-16T06:17:51.147Z,89.83
2019-05-16T06:18:51.127Z,90.28
2019-05-16T06:19:51.116Z,90.17
2019-05-16T06:20:51.622Z,89.92
2019-05-16T06:21:51.090Z,90.79
2019-05-16T06:22:51.135Z,90.28
2019-05-16T06:23:51.147Z,90.79
2019-05-16T06:24:51.058Z,90.44
2019-05-16T06:25:51.213Z,90.58
2019-05-16T06:26:51.031Z,91.36
2019-05-16T06:27:51.292Z,91.36
2019-05-16T06:28:51.027Z,90.54
2019-05-16T06:29:51.002Z,90.75
2019-05-16T06:30:51.934Z,90.64
2019-05-16T06:31:50.992Z,90.44
2019-05-16T06:32:50.971Z,89.72
2019-05-16T06:33:50.985Z,89.51
2019-05-16T06:34:50.991Z,89.92
2019-05-16T06:35:51.603Z,90.54
2019-05-16T06:36:51.202Z,91.26
2019-05-16T06:37:50.918Z,90.95
2019-05-16T06:38:50.920Z,90.44
2019-05-16T06:39:50.890Z,90.54
2019-05-16T06:40:52.747Z,90.75
2019-05-16T06:41:51.219Z,90.75
2019-05-16T06:42:51.131Z,90.54
2019-05-16T06:43:50.926Z,90.75
2019-05-16T06:44:50.866Z,91.05
2019-05-16T06:45:51.494Z,91.16
2019-05-16T06:47:08.482Z,91.56
2019-05-16T06:47:51.806Z,91.42
2019-05-16T06:48:50.822Z,91.11
2019-05-16T06:49:51.052Z,91.52
2019-05-16T06:50:51.739Z,90.60
2019-05-16T06:51:51.479Z,90.70
2019-05-16T06:52:50.759Z,90.70
2019-05-16T06:53:50.752Z,90.70
2019-05-16T06:54:53.723Z,90.60
2019-05-16T06:55:50.714Z,89.78
2019-05-16T06:56:51.067Z,89.37
2019-05-16T06:57:50.702Z,89.92
2019-05-16T06:58:51.918Z,89.92
2019-05-16T06:59:50.672Z,90.09
2019-05-16T07:00:52.346Z,90.19
2019-05-16T07:01:50.644Z,90.81
2019-05-16T07:02:50.650Z,90.81
2019-05-16T07:03:50.931Z,90.39
2019-05-16T07:04:50.784Z,90.19
2019-05-16T07:05:50.809Z,90.39
2019-05-16T07:06:58.607Z,90.70
2019-05-16T07:07:51.584Z,89.47
2019-05-16T07:08:50.983Z,89.72
2019-05-16T07:10:00.063Z,89.58
2019-05-16T07:10:51.543Z,89.78
2019-05-16T07:11:50.582Z,89.78
2019-05-16T07:12:50.618Z,90.81
2019-05-16T07:13:51.944Z,90.39
2019-05-16T07:14:50.754Z,90.70
2019-05-16T07:15:50.573Z,90.81
2019-05-16T07:16:50.471Z,90.50
2019-05-16T07:17:50.808Z,90.60
2019-05-16T07:18:50.773Z,90.09
2019-05-16T07:19:50.464Z,90.56
2019-05-16T07:20:51.338Z,91.48
2019-05-16T07:21:50.938Z,90.97
2019-05-16T07:22:50.577Z,91.38
2019-05-16T07:23:51.084Z,90.45
2019-05-16T07:24:50.592Z,90.56
2019-05-16T07:25:50.855Z,90.30
2019-05-16T07:26:50.396Z,90.25
2019-05-16T07:27:51.063Z,91.27
2019-05-16T07:28:51.499Z,91.01
2019-05-16T07:29:50.794Z,91.38
2019-05-16T07:30:50.449Z,91.83
2019-05-16T07:31:52.345Z,92.50
2019-05-16T07:32:50.293Z,91.99
2019-05-16T07:33:50.404Z,91.42
2019-05-16T07:34:50.284Z,91.31
2019-05-16T07:35:51.258Z,91.31
2019-05-16T07:36:50.455Z,91.11
2019-05-16T07:37:50.236Z,91.63
2019-05-16T07:38:50.824Z,91.83
2019-05-16T07:39:51.132Z,91.63
2019-05-16T07:40:51.252Z,91.63
2019-05-16T07:41:50.872Z,91.52
2019-05-16T07:42:50.954Z,91.73
2019-05-16T07:43:50.703Z,91.63
2019-05-16T07:44:50.704Z,91.31
2019-05-16T07:45:51.410Z,91.73
2019-05-16T07:46:51.502Z,92.03
2019-05-16T07:47:50.979Z,92.85
2019-05-16T07:48:51.827Z,92.44
2019-05-16T07:49:50.287Z,91.42
2019-05-16T07:50:50.322Z,91.52
2019-05-16T07:51:50.071Z,91.16
2019-05-16T07:52:51.121Z,91.42
2019-05-16T07:53:50.647Z,91.22
2019-05-16T07:54:50.720Z,92.24
2019-05-16T07:55:50.896Z,92.14
2019-05-16T07:56:59.576Z,92.03
2019-05-16T07:57:51.010Z,92.65
2019-05-16T07:58:50.778Z,92.44
2019-05-16T07:59:50.687Z,93.06
2019-05-16T08:01:01.916Z,92.96
2019-05-16T08:01:54.022Z,92.81
2019-05-16T08:02:50.587Z,92.85
2019-05-16T08:03:50.910Z,92.75
2019-05-16T08:04:50.302Z,92.85
2019-05-16T08:05:51.457Z,92.96
2019-05-16T08:06:50.285Z,92.50
2019-05-16T08:07:51.243Z,93.06
2019-05-16T08:08:50.914Z,92.03
2019-05-16T08:09:50.561Z,91.52
2019-05-16T08:10:50.974Z,92.55
2019-05-16T08:11:50.210Z,92.65
2019-05-16T08:12:51.264Z,92.44
2019-05-16T08:13:50.785Z,92.34
2019-05-16T08:14:50.270Z,92.50
2019-05-16T08:15:50.518Z,93.06
2019-05-16T08:16:50.271Z,92.81
2019-05-16T08:17:51.150Z,92.65
2019-05-16T08:18:50.611Z,92.14
2019-05-16T08:21:50.788Z,92.81
2019-05-16T08:22:50.765Z,93.22
2019-05-16T08:23:50.558Z,92.91
2019-05-16T08:24:50.566Z,92.60
2019-05-16T08:25:50.773Z,92.71
2019-05-16T08:26:51.453Z,92.71
2019-05-16T08:27:52.056Z,93.01
2019-05-16T08:28:50.541Z,93.32
2019-05-16T08:29:51.338Z,93.22
2019-05-16T08:30:52.935Z,93.01
2019-05-16T08:31:52.830Z,93.32
2019-05-16T08:32:52.871Z,92.81
2019-05-16T08:33:53.618Z,92.81
2019-05-16T08:34:51.506Z,92.91
2019-05-16T08:36:51.940Z,92.81
2019-05-16T08:37:51.571Z,93.12
2019-05-16T08:38:51.650Z,93.52
2019-05-16T08:39:50.979Z,93.22
2019-05-16T08:41:05.999Z,92.91
2019-05-16T08:41:52.070Z,92.60
2019-05-16T08:42:51.992Z,92.91
2019-05-16T08:43:53.301Z,92.60
2019-05-16T08:44:51.747Z,92.50
2019-05-16T08:45:51.522Z,92.30
2019-05-16T08:47:52.559Z,91.58
2019-05-16T08:48:54.040Z,91.69
2019-05-16T08:49:52.167Z,92.10
2019-05-16T08:50:04.937Z,92.60
2019-05-16T08:50:04.937Z,92.24
2019-05-16T08:50:08.650Z,92.60
2019-05-16T08:50:09.656Z,91.69
2019-05-16T08:50:53.819Z,92.91
2019-05-16T08:51:52.899Z,93.01
2019-05-16T08:52:52.909Z,92.91
2019-05-16T08:53:50.430Z,93.47
2019-05-16T08:54:51.054Z,93.73
2019-05-16T08:55:50.598Z,93.52
2019-05-16T08:56:50.993Z,93.32
2019-05-16T08:57:52.975Z,93.93
2019-05-16T08:58:53.950Z,93.84
2019-05-16T08:59:52.432Z,94.04
2019-05-16T09:00:54.700Z,93.73
2019-05-16T09:01:56.803Z,93.73
2019-05-16T09:02:52.541Z,93.63
2019-05-16T09:03:52.012Z,93.52
2019-05-16T09:04:53.123Z,93.84
2019-05-16T09:05:52.979Z,93.69
2019-05-16T09:06:52.365Z,92.60
2019-05-16T09:07:49.217Z,93.32
2019-05-16T09:08:49.211Z,93.43
2019-05-16T09:09:51.901Z,93.28
2019-05-16T09:11:00.634Z,93.52
2019-05-16T09:11:50.171Z,93.73
2019-05-16T09:12:49.168Z,94.04
2019-05-16T09:13:49.159Z,93.73
2019-05-16T09:14:49.156Z,93.93
2019-05-16T09:15:49.146Z,93.12
2019-05-16T09:16:49.134Z,93.52
2019-05-16T09:17:49.115Z,93.69
2019-05-16T09:18:51.000Z,93.93
2019-05-16T09:19:49.087Z,93.79
2019-05-16T09:20:50.326Z,94.04
2019-05-16T09:21:49.086Z,93.93
2019-05-16T09:22:49.079Z,94.24
2019-05-16T09:23:49.053Z,94.55
2019-05-16T09:24:49.043Z,94.45
2019-05-16T09:25:49.366Z,93.99
2019-05-16T09:26:49.011Z,94.75
2019-05-16T09:27:48.996Z,94.60
2019-05-16T09:28:48.996Z,94.51
2019-05-16T09:29:48.976Z,94.71
2019-05-16T09:30:48.989Z,94.34
2019-05-16T09:32:06.577Z,94.30
2019-05-16T09:32:49.952Z,95.26
2019-05-16T09:33:48.935Z,95.22
2019-05-16T09:34:48.918Z,95.43
2019-05-16T09:35:48.927Z,95.37
2019-05-16T09:36:48.914Z,94.92
2019-05-16T09:37:48.882Z,94.71
2019-05-16T09:38:48.930Z,94.92
2019-05-16T09:39:48.867Z,94.65
2019-05-16T09:40:48.866Z,94.92
2019-05-16T09:41:54.449Z,94.96
2019-05-16T09:42:49.840Z,95.32
2019-05-16T09:43:49.082Z,95.47
2019-05-16T09:44:48.801Z,95.17
2019-05-16T09:45:48.798Z,95.32
2019-05-16T09:46:48.778Z,95.32
2019-05-16T09:47:48.818Z,94.92
2019-05-16T09:48:48.761Z,94.10
2019-05-16T09:49:48.746Z,94.60
2019-05-16T09:50:48.729Z,94.40
2019-05-16T09:51:48.738Z,94.51
2019-05-16T09:52:48.714Z,94.40
2019-05-16T09:53:48.708Z,94.71
2019-05-16T09:54:48.692Z,94.81
2019-05-16T09:55:48.684Z,94.15
2019-05-16T09:56:48.683Z,94.56
2019-05-16T09:57:48.651Z,94.51
2019-05-16T09:58:48.646Z,94.51
2019-05-16T09:59:48.631Z,94.71
2019-05-16T10:00:48.623Z,95.32
2019-05-16T10:01:48.614Z,95.07
2019-05-16T10:02:48.625Z,95.28
2019-05-16T10:03:48.603Z,96.10
2019-05-16T10:04:48.575Z,95.94
2019-05-16T10:05:48.557Z,95.32
2019-05-16T10:06:48.553Z,95.07
2019-05-16T10:07:48.566Z,94.87
2019-05-16T10:08:48.530Z,95.48
2019-05-16T10:09:50.116Z,96.10
2019-05-16T10:10:48.502Z,95.79
2019-05-16T10:11:49.466Z,95.48
2019-05-16T10:12:49.496Z,95.63
2019-05-16T10:13:48.468Z,95.18
2019-05-16T10:14:48.460Z,94.87
2019-05-16T10:15:48.447Z,95.18
2019-05-16T10:16:48.450Z,95.18
2019-05-16T10:17:48.432Z,94.67
2019-05-16T10:18:48.414Z,93.95
2019-05-16T10:19:48.412Z,94.56
2019-05-16T10:20:48.396Z,94.32
2019-05-16T10:21:48.392Z,94.21
2019-05-16T10:22:50.610Z,94.87
2019-05-16T10:23:48.365Z,94.73
2019-05-16T10:24:48.345Z,94.82
2019-05-16T10:25:48.340Z,95.23
2019-05-16T10:26:53.623Z,95.13
2019-05-16T10:27:48.314Z,95.03
2019-05-16T10:28:48.305Z,95.03
2019-05-16T10:29:48.702Z,95.50
2019-05-16T10:30:50.195Z,94.68
2019-05-16T10:31:52.683Z,94.78
2019-05-16T10:32:49.267Z,94.07
2019-05-16T10:33:48.245Z,94.17
2019-05-16T10:34:48.239Z,94.48
2019-05-16T10:35:48.323Z,94.27
2019-05-16T10:36:48.221Z,94.89
2019-05-16T10:37:48.220Z,95.19
2019-05-16T10:38:48.585Z,95.19
2019-05-16T10:39:48.187Z,95.19
2019-05-16T10:40:48.183Z,94.78
2019-05-16T10:41:48.171Z,94.37
2019-05-16T10:42:48.141Z,93.86
2019-05-16T10:43:48.130Z,93.96
2019-05-16T10:44:48.696Z,93.45
2019-05-16T10:45:48.113Z,93.51
2019-05-16T10:46:48.191Z,93.66
2019-05-16T10:47:48.284Z,93.71
2019-05-16T10:48:48.077Z,93.66
2019-05-16T10:49:48.066Z,93.41
2019-05-16T10:50:48.160Z,93.21
2019-05-16T10:51:48.134Z,93.00
2019-05-16T10:53:06.971Z,92.80
2019-05-16T10:54:10.512Z,93.10
2019-05-16T10:54:57.410Z,93.10
2019-05-16T10:55:48.004Z,93.41
2019-05-16T10:56:48.163Z,93.41
2019-05-16T10:57:48.096Z,92.80
2019-05-16T10:59:21.570Z,92.80
2019-05-16T11:00:05.091Z,93.10
2019-05-16T11:01:11.788Z,92.19
2019-05-16T11:01:48.966Z,91.27
2019-05-16T11:02:47.970Z,92.29
2019-05-16T11:03:49.227Z,92.45
2019-05-16T11:04:59.947Z,92.14
2019-05-16T11:06:03.069Z,92.24
2019-05-16T11:06:48.886Z,93.06
2019-05-16T11:07:50.650Z,92.45
2019-05-16T11:08:48.854Z,92.45
2019-05-16T11:09:58.273Z,92.65
2019-05-16T11:10:48.860Z,92.76
2019-05-16T11:11:47.880Z,92.65
2019-05-16T11:12:54.873Z,92.76
2019-05-16T11:13:51.058Z,91.12
2019-05-16T11:14:47.968Z,91.27
2019-05-16T11:15:47.775Z,91.94
2019-05-16T11:16:47.772Z,92.45
2019-05-16T11:17:47.751Z,92.69
2019-05-16T11:18:47.764Z,92.80
2019-05-16T11:19:47.734Z,92.90
2019-05-16T11:20:49.154Z,92.35
2019-05-16T11:21:47.704Z,93.06
2019-05-16T11:22:47.921Z,92.35
2019-05-16T11:23:47.702Z,93.16
2019-05-16T11:24:47.673Z,92.35
2019-05-16T11:25:47.658Z,92.45
2019-05-16T11:26:47.651Z,91.02
2019-05-16T11:27:47.642Z,90.61
2019-05-16T11:28:48.792Z,91.02
2019-05-16T11:29:47.615Z,91.43
2019-05-16T11:30:48.141Z,92.04
2019-05-16T11:31:47.591Z,92.04
2019-05-16T11:32:47.592Z,92.20
2019-05-16T11:33:47.854Z,92.20
2019-05-16T11:34:48.054Z,92.20
2019-05-16T11:35:47.889Z,92.41
2019-05-16T11:36:47.889Z,91.69
2019-05-16T11:37:47.541Z,91.08
2019-05-16T11:38:47.787Z,91.49
2019-05-16T11:39:47.501Z,91.08
2019-05-16T11:40:47.793Z,91.39
2019-05-16T11:41:47.740Z,91.18
2019-05-16T11:43:05.154Z,91.28
2019-05-16T11:43:48.460Z,92.20
2019-05-16T11:44:47.963Z,92.41
2019-05-16T11:45:47.448Z,92.00
2019-05-16T11:46:48.967Z,91.39
2019-05-16T11:47:47.437Z,91.28
2019-05-16T11:48:49.022Z,91.08
2019-05-16T11:49:47.729Z,90.98
2019-05-16T11:50:48.001Z,90.67
2019-05-16T11:51:47.499Z,90.77
2019-05-16T11:52:47.896Z,90.73
2019-05-16T11:53:47.705Z,90.73
2019-05-16T11:54:47.330Z,90.73
2019-05-16T11:55:54.545Z,91.14
2019-05-16T11:56:48.330Z,90.53
2019-05-16T11:57:47.724Z,90.42
2019-05-16T11:58:47.447Z,90.99
2019-05-16T11:59:47.276Z,90.69
2019-05-16T12:00:48.209Z,90.18
2019-05-16T12:01:47.598Z,89.57
2019-05-16T12:02:47.918Z,88.45
2019-05-16T12:03:47.251Z,88.92
2019-05-16T12:04:47.472Z,88.92
2019-05-16T12:05:48.160Z,89.26
2019-05-16T12:06:47.201Z,90.28
2019-05-16T12:07:48.556Z,89.97
2019-05-16T12:08:47.207Z,90.34
2019-05-16T12:09:54.555Z,90.14
2019-05-16T12:10:48.156Z,90.48
2019-05-16T12:11:47.148Z,89.73
2019-05-16T12:12:47.133Z,89.83
2019-05-16T12:13:47.681Z,89.94
2019-05-16T12:14:47.117Z,90.14
2019-05-16T12:15:47.114Z,89.87
2019-05-16T12:16:47.436Z,88.92
2019-05-16T12:18:00.193Z,88.71
2019-05-16T12:18:48.075Z,87.90
2019-05-16T12:19:49.055Z,87.90
2019-05-16T12:20:48.047Z,88.51
2019-05-16T12:21:47.047Z,89.01
2019-05-16T12:22:47.023Z,89.16
2019-05-16T12:23:47.409Z,89.01
2019-05-16T12:24:47.774Z,89.32
2019-05-16T12:25:47.553Z,88.92
2019-05-16T12:26:47.981Z,89.01
2019-05-16T12:27:48.081Z,89.42
2019-05-16T12:28:46.969Z,89.32
2019-05-16T12:29:50.261Z,88.81
2019-05-16T12:30:47.941Z,89.26
2019-05-16T12:31:57.759Z,88.81
2019-05-16T12:32:47.927Z,90.34
2019-05-16T12:33:47.824Z,89.01
2019-05-16T12:34:46.890Z,89.47
2019-05-16T12:35:47.595Z,90.28
2019-05-16T12:36:47.348Z,90.24
2019-05-16T12:37:47.972Z,89.67
2019-05-16T12:38:46.890Z,89.83
2019-05-16T12:39:47.136Z,89.83
2019-05-16T12:40:47.972Z,89.83
2019-05-16T12:41:49.204Z,90.14
2019-05-16T12:42:47.290Z,90.03
2019-05-16T12:43:53.161Z,89.53
2019-05-16T12:44:47.787Z,88.92
2019-05-16T12:45:47.369Z,89.01
2019-05-16T12:46:47.436Z,89.12
2019-05-16T12:47:47.362Z,89.22
2019-05-16T12:48:47.417Z,90.34
2019-05-16T12:49:47.224Z,90.24
2019-05-16T12:50:47.930Z,89.22
2019-05-16T12:51:46.722Z,89.12
2019-05-16T12:52:47.406Z,88.81